Time;durP1;ratioP1;P1;durP2;ratioP2;P2;SDS_P1;SDS_P2;PMS_P1;PMS_P2;Temp;Humidity;BMP_temperature;BMP_pressure;BME280_temperature;BME280_humidity;BME280_pressure;Samples;Min_cycle;Max_cycle;Signal;HPM_P1;HPM_P2
2023/07/31 00:01:31;;;;;;;3.90;1.67;;;;;;;-145.68;62.70;73277.94;10215777;29;20262;-69
2023/07/31 00:06:31;;;;;;;3.08;1.80;;;;;;;-145.68;62.27;73271.94;10215768;29;20224;-69
2023/07/31 00:11:31;;;;;;;2.95;1.35;;;;;;;-145.68;62.71;73277.94;10215445;29;20227;-69
2023/07/31 00:16:32;;;;;;;3.53;1.70;;;;;;;-145.68;63.09;73287.94;10216058;29;20298;-69
2023/07/31 00:21:32;;;;;;;5.88;1.73;;;;;;;-145.68;63.45;73295.94;10215203;29;20216;-69
2023/07/31 00:26:32;;;;;;;8.18;1.58;;;;;;;-145.68;63.43;73291.94;10214895;29;20251;-70
2023/07/31 00:31:33;;;;;;;2.65;1.70;;;;;;;-145.68;63.38;73291.94;10215047;29;20294;-70
2023/07/31 00:36:33;;;;;;;6.30;1.98;;;;;;;-145.68;63.44;73283.94;10214418;29;20247;-69
2023/07/31 00:41:34;;;;;;;5.20;1.73;;;;;;;-145.68;63.86;73289.94;10214740;29;20215;-70
2023/07/31 00:46:35;;;;;;;8.07;2.15;;;;;;;-145.68;64.40;73303.91;10197209;29;20667;-69
2023/07/31 00:51:36;;;;;;;8.43;2.00;;;;;;;-145.68;65.41;73319.91;10197216;29;20208;-69
2023/07/31 00:56:37;;;;;;;3.40;1.83;;;;;;;-145.68;66.15;73331.91;10214213;29;20256;-69
2023/07/31 01:01:38;;;;;;;8.38;1.75;;;;;;;-145.68;67.26;73355.88;10213606;29;20212;-69
2023/07/31 01:07:08;;;;;;;6.80;2.03;;;;;;;-145.68;67.86;73353.88;10213667;29;20224;-69
2023/07/31 01:12:16;;;;;;;3.63;2.00;;;;;;;-145.68;68.22;73361.88;10182589;29;20262;-69
2023/07/31 01:17:16;;;;;;;2.17;1.58;;;;;;;-145.68;67.92;73339.91;10213356;29;20228;-69
2023/07/31 01:22:33;;;;;;;5.57;1.65;;;;;;;-145.68;67.54;73331.91;10212688;29;20601;-69
2023/07/31 01:27:44;;;;;;;4.60;1.65;;;;;;;-145.68;67.04;73323.91;10195818;29;20369;-68
2023/07/31 01:32:46;;;;;;;5.88;1.88;;;;;;;-145.68;67.49;73335.91;10212065;29;20227;-69
2023/07/31 01:37:47;;;;;;;5.25;1.60;;;;;;;-145.68;66.96;73323.91;10212427;29;20691;-69
2023/07/31 01:42:47;;;;;;;5.75;1.63;;;;;;;-145.68;66.97;73339.91;10212132;29;20234;-68
2023/07/31 01:47:49;;;;;;;3.83;1.55;;;;;;;-145.68;67.29;73347.88;10211899;29;20218;-68
2023/07/31 01:52:49;;;;;;;7.55;2.15;;;;;;;-145.68;66.50;73327.91;10211919;29;20712;-68
2023/07/31 01:57:49;;;;;;;7.07;2.33;;;;;;;-145.68;66.72;73329.91;10211358;29;20659;-68
2023/07/31 02:02:50;;;;;;;5.80;1.75;;;;;;;-145.68;66.69;73327.91;10194563;29;20608;-68
2023/07/31 02:07:51;;;;;;;6.53;1.98;;;;;;;-145.68;66.39;73315.91;10194836;29;20216;-68
2023/07/31 02:12:52;;;;;;;5.30;1.60;;;;;;;-145.68;66.47;73317.91;10194460;29;20235;-68
2023/07/31 02:17:52;;;;;;;4.38;1.70;;;;;;;-145.68;67.17;73327.91;10211135;29;20635;-68
2023/07/31 02:22:52;;;;;;;7.85;2.10;;;;;;;-145.68;66.40;73327.91;10210035;29;20238;-68
2023/07/31 02:27:53;;;;;;;4.80;1.88;;;;;;;-145.68;66.42;73327.91;10211097;29;20299;-69
2023/07/31 02:32:54;;;;;;;5.35;1.60;;;;;;;-145.68;66.16;73327.91;10210575;29;20784;-69
2023/07/31 02:37:54;;;;;;;5.85;1.60;;;;;;;-145.68;66.13;73329.91;10210727;29;20671;-69
2023/07/31 02:42:54;;;;;;;7.15;2.13;;;;;;;-145.68;65.42;73311.91;10193527;29;20670;-68
2023/07/31 02:47:55;;;;;;;2.75;1.58;;;;;;;-145.68;66.01;73315.91;10210316;29;20215;-68
2023/07/31 02:52:55;;;;;;;5.78;2.20;;;;;;;-145.68;65.17;73289.94;10210351;29;20235;-69
2023/07/31 02:57:55;;;;;;;5.72;1.85;;;;;;;-145.68;65.33;73301.91;10210311;29;20210;-69
2023/07/31 03:02:56;;;;;;;7.13;1.70;;;;;;;-145.68;65.04;73281.94;10210316;29;20231;-69
2023/07/31 03:07:56;;;;;;;6.28;1.98;;;;;;;-145.68;64.35;73269.94;10210182;29;20279;-69
2023/07/31 03:12:57;;;;;;;7.70;1.75;;;;;;;-145.68;63.87;73269.94;10193335;29;20836;-68
2023/07/31 03:17:58;;;;;;;4.75;1.73;;;;;;;-145.68;63.99;73259.94;10192760;29;20208;-68
2023/07/31 03:22:58;;;;;;;6.63;1.80;;;;;;;-145.68;64.38;73255.94;10192761;29;20235;-69
2023/07/31 03:27:59;;;;;;;4.38;1.63;;;;;;;-145.68;64.53;73253.94;10209839;29;20303;-69
2023/07/31 03:32:59;;;;;;;6.18;1.98;;;;;;;-145.68;65.42;73257.94;10213156;29;20646;-69
2023/07/31 03:38:00;;;;;;;6.40;2.10;;;;;;;-145.68;66.35;73251.94;10216714;29;20232;-69
2023/07/31 03:43:01;;;;;;;4.57;2.05;;;;;;;-145.68;74.29;73323.91;10216720;29;20314;-68
2023/07/31 03:48:01;;;;;;;8.38;2.58;;;;;;;-145.68;90.01;73399.84;10216881;29;20259;-69
2023/07/31 03:53:02;;;;;;;5.38;2.03;;;;;;;-145.68;100.00;73433.84;10199267;29;20227;-70
2023/07/31 03:58:02;;;;;;;6.43;2.17;;;;;;;-145.68;100.00;73449.81;10216145;29;20706;-68
2023/07/31 04:03:03;;;;;;;6.20;2.58;;;;;;;-145.68;100.00;73441.81;10215736;29;20258;-68
2023/07/31 04:08:03;;;;;;;5.20;2.47;;;;;;;-145.68;100.00;73445.81;10215892;29;20216;-66
2023/07/31 04:13:03;;;;;;;5.22;2.38;;;;;;;-145.68;100.00;73447.81;10215654;29;20235;-67
2023/07/31 04:18:05;;;;;;;4.13;2.53;;;;;;;-145.68;100.00;73443.84;10215327;29;20212;-68
2023/07/31 04:23:05;;;;;;;7.78;3.00;;;;;;;-145.68;100.00;73441.81;10215309;29;20228;-68
2023/07/31 04:28:07;;;;;;;7.40;2.90;;;;;;;-145.68;100.00;73423.84;10214884;29;20204;-68
2023/07/31 04:33:07;;;;;;;4.57;2.70;;;;;;;-145.68;100.00;73423.84;10214759;29;20240;-69
2023/07/31 04:38:08;;;;;;;5.03;3.00;;;;;;;-145.68;100.00;73407.84;10214562;29;20282;-69
2023/07/31 04:43:08;;;;;;;7.97;2.80;;;;;;;-145.68;100.00;73397.84;10213662;29;20236;-69
2023/07/31 04:48:08;;;;;;;4.18;2.42;;;;;;;-145.68;100.00;73375.88;10214249;29;20226;-68
2023/07/31 04:53:09;;;;;;;7.85;3.05;;;;;;;-145.68;100.00;73371.88;10243308;23;20247;-68
2023/07/31 04:58:09;;;;;;;5.25;2.60;;;;;;;-145.68;100.00;73353.88;10253132;29;20203;-67
2023/07/31 05:03:11;;;;;;;4.22;1.90;;;;;;;-145.68;100.00;73327.91;10245142;29;20231;-66
2023/07/31 05:08:11;;;;;;;6.43;2.70;;;;;;;-145.68;100.00;73315.91;10213686;29;20212;-67
2023/07/31 05:13:12;;;;;;;3.83;1.85;;;;;;;-145.68;100.00;73317.91;10213161;29;20248;-67
2023/07/31 05:18:12;;;;;;;6.30;3.00;;;;;;;-145.68;100.00;73303.91;10213008;29;20214;-66
2023/07/31 05:23:13;;;;;;;5.38;2.50;;;;;;;-145.68;100.00;73297.91;10212994;29;20290;-66
2023/07/31 05:28:13;;;;;;;11.43;2.40;;;;;;;-145.68;100.00;73279.94;10212502;29;20239;-65
2023/07/31 05:33:13;;;;;;;6.63;2.35;;;;;;;-145.68;100.00;73271.94;10212693;29;20228;-66
2023/07/31 05:38:14;;;;;;;5.38;2.45;;;;;;;-145.68;100.00;73261.94;10212375;29;20207;-65
2023/07/31 05:43:14;;;;;;;5.38;1.95;;;;;;;-145.68;100.00;73233.97;10212215;29;20227;-65
2023/07/31 05:48:15;;;;;;;5.63;1.92;;;;;;;-145.68;100.00;73227.97;10212152;29;20204;-67
2023/07/31 05:53:15;;;;;;;6.65;2.65;;;;;;;-145.68;100.00;73213.97;10211609;29;20286;-67
2023/07/31 05:58:15;;;;;;;5.65;2.53;;;;;;;-145.68;100.00;73203.97;10211903;29;20212;-67
2023/07/31 06:03:16;;;;;;;7.28;2.55;;;;;;;-145.68;100.00;73198.00;10211500;29;20282;-66
2023/07/31 06:08:16;;;;;;;5.85;2.97;;;;;;;-145.68;100.00;73176.00;10211594;29;20220;-68
2023/07/31 06:13:16;;;;;;;4.68;2.00;;;;;;;-145.68;100.00;73174.00;10211237;29;20228;-68
2023/07/31 06:18:17;;;;;;;5.43;2.17;;;;;;;-145.68;100.00;73200.00;10211172;29;20207;-68
2023/07/31 06:23:18;;;;;;;5.28;2.20;;;;;;;-145.68;100.00;73200.00;10211001;29;20228;-67
2023/07/31 06:28:18;;;;;;;5.22;2.33;;;;;;;-145.68;100.00;73194.00;10210832;29;20203;-67
2023/07/31 06:33:19;;;;;;;6.65;2.53;;;;;;;-145.68;100.00;73198.00;10210799;29;20318;-67
2023/07/31 06:38:22;;;;;;;7.38;2.42;;;;;;;-145.68;100.00;73207.97;10210653;29;20223;-67
2023/07/31 06:43:22;;;;;;;6.00;2.58;;;;;;;-145.68;100.00;73186.00;10210481;29;20239;-66
2023/07/31 06:48:23;;;;;;;3.97;1.88;;;;;;;-145.68;100.00;73166.00;10210545;29;20211;-66
2023/07/31 06:53:23;;;;;;;9.20;2.83;;;;;;;-145.68;100.00;73156.00;10210375;29;20334;-67
2023/07/31 06:58:23;;;;;;;4.32;2.70;;;;;;;-145.68;100.00;73136.03;10210451;29;20204;-67
2023/07/31 07:03:24;;;;;;;5.05;2.45;;;;;;;-145.68;100.00;73116.03;10210289;29;20236;-67
2023/07/31 07:08:25;;;;;;;5.95;2.55;;;;;;;-145.68;100.00;73108.06;10214406;29;20215;-67
2023/07/31 07:13:25;;;;;;;4.97;2.17;;;;;;;-145.68;100.00;73080.06;10217650;29;20236;-66
2023/07/31 07:18:25;;;;;;;4.72;2.53;;;;;;;-145.68;94.96;73072.06;10217572;29;20214;-65
2023/07/31 07:23:26;;;;;;;4.53;2.17;;;;;;;-145.68;91.41;73048.09;10217329;29;20231;-66
2023/07/31 07:28:28;;;;;;;3.90;2.17;;;;;;;-145.68;88.50;73024.13;10217519;29;20291;-67
2023/07/31 07:33:28;;;;;;;4.55;1.80;;;;;;;-145.68;86.30;73006.13;10216802;29;20239;-67
2023/07/31 07:38:29;;;;;;;7.63;2.22;;;;;;;-145.68;84.26;73008.13;10217042;29;20216;-65
2023/07/31 07:43:29;;;;;;;6.95;2.47;;;;;;;-145.68;83.53;72994.13;10216602;29;20228;-67
2023/07/31 07:48:29;;;;;;;5.80;2.60;;;;;;;-145.68;80.93;72988.13;10217278;29;20211;-66
2023/07/31 07:53:30;;;;;;;5.10;2.65;;;;;;;-145.68;79.65;72978.16;10217386;29;20232;-67
2023/07/31 07:58:30;;;;;;;4.47;2.40;;;;;;;-145.68;76.43;72926.19;10216051;29;20215;-67
2023/07/31 08:03:30;;;;;;;4.28;2.28;;;;;;;-145.68;76.41;72924.19;10214978;29;20319;-67
2023/07/31 08:08:31;;;;;;;5.43;2.60;;;;;;;-145.68;74.29;72906.19;10215779;29;20220;-67
2023/07/31 08:13:31;;;;;;;7.78;2.08;;;;;;;-145.68;73.87;72838.25;10215483;29;20243;-67
2023/07/31 08:18:32;;;;;;;8.48;2.30;;;;;;;-145.68;71.00;72846.25;10214273;29;20206;-66
2023/07/31 08:23:33;;;;;;;6.68;2.53;;;;;;;-145.68;71.62;72880.22;10214711;29;20330;-66
2023/07/31 08:28:33;;;;;;;3.75;2.10;;;;;;;-145.68;72.24;72882.22;10215143;29;20295;-67
2023/07/31 08:33:33;;;;;;;6.25;2.42;;;;;;;-145.68;70.71;72908.19;10214620;29;20232;-67
2023/07/31 08:38:34;;;;;;;6.32;2.80;;;;;;;-145.68;72.01;72878.22;10214730;29;20216;-68
2023/07/31 08:43:35;;;;;;;4.95;2.90;;;;;;;-145.68;70.75;72892.22;10214447;29;20232;-67
2023/07/31 08:48:35;;;;;;;9.60;3.13;;;;;;;-145.68;69.59;72874.22;10214290;29;20236;-67
2023/07/31 08:53:35;;;;;;;4.93;2.55;;;;;;;-145.68;70.21;72910.19;10197077;29;20769;-67
2023/07/31 08:58:37;;;;;;;5.68;2.75;;;;;;;-145.68;69.92;72898.19;10213807;29;20255;-67
2023/07/31 09:03:38;;;;;;;4.75;2.50;;;;;;;-145.68;69.20;72878.22;10213729;29;20235;-67
2023/07/31 09:08:42;;;;;;;7.57;3.05;;;;;;;-145.68;68.86;72876.22;10213754;29;20211;-67
2023/07/31 09:13:43;;;;;;;5.10;2.75;;;;;;;-145.68;68.15;72916.19;10213021;29;20242;-66
2023/07/31 09:18:54;;;;;;;5.32;2.35;;;;;;;-145.68;68.68;72922.19;10213118;29;20558;-67
2023/07/31 09:23:54;;;;;;;4.53;2.50;;;;;;;-145.68;68.30;72906.19;10212844;29;20363;-67
2023/07/31 09:28:54;;;;;;;4.47;2.20;;;;;;;-145.68;68.17;72882.22;10212596;29;20700;-67
2023/07/31 09:33:56;;;;;;;4.90;2.45;;;;;;;-145.68;67.21;72836.25;10212446;29;20634;-67
2023/07/31 09:39:01;;;;;;;5.93;2.85;;;;;;;-145.68;66.94;72834.25;10212147;29;20270;-67
2023/07/31 09:44:02;;;;;;;4.72;2.90;;;;;;;-145.68;66.33;72808.28;10212465;29;20231;-68
2023/07/31 09:49:13;;;;;;;5.10;2.30;;;;;;;-145.68;65.18;72818.25;10211656;29;20215;-67
2023/07/31 09:54:15;;;;;;;4.57;2.30;;;;;;;-145.68;65.99;72846.25;10211763;29;20235;-67
2023/07/31 09:59:17;;;;;;;5.95;2.17;;;;;;;-145.68;65.77;72828.25;10211795;29;20216;-67
2023/07/31 10:04:20;;;;;;;7.90;2.55;;;;;;;-145.68;65.70;72792.28;10211604;29;20783;-67
2023/07/31 10:09:21;;;;;;;7.05;2.55;;;;;;;-145.68;64.96;72792.28;10211523;29;20216;-67
2023/07/31 10:14:22;;;;;;;4.78;2.17;;;;;;;-145.68;64.87;72782.28;10194036;29;20235;-67
2023/07/31 10:19:22;;;;;;;1.52;1.42;;;;;;;-145.68;63.65;72740.31;10211164;29;20294;-67
2023/07/31 10:24:23;;;;;;;5.38;2.50;;;;;;;-145.68;63.27;72744.31;10210872;29;20236;-67
2023/07/31 10:29:24;;;;;;;5.75;2.83;;;;;;;-145.68;62.05;72674.38;10193944;29;20211;-67
2023/07/31 10:34:25;;;;;;;5.50;2.20;;;;;;;-145.68;61.46;72636.41;10210673;29;20800;-67
2023/07/31 10:39:39;;;;;;;3.28;1.92;;;;;;;-145.68;61.99;72624.41;10210763;29;20218;-67
2023/07/31 10:44:47;;;;;;;6.22;2.50;;;;;;;-145.68;61.23;72620.41;10210267;29;20232;-67
2023/07/31 10:49:48;;;;;;;5.22;2.10;;;;;;;-145.68;60.11;72588.44;10210365;29;20256;-68
2023/07/31 10:55:27;;;;;;;2.08;1.70;;;;;;;-145.68;59.05;72518.50;10222803;23;20347;-69
2023/07/31 11:00:29;;;;;;;1.67;1.55;;;;;;;-145.68;57.56;72462.56;10169520;29;20571;-68
2023/07/31 11:05:48;;;;;;;2.70;1.67;;;;;;;-145.68;57.86;72588.44;10170774;29;20228;-67
2023/07/31 11:11:08;;;;;;;1.50;1.40;;;;;;;-145.68;58.47;72584.44;10170754;29;20303;-69
2023/07/31 11:16:10;;;;;;;2.45;1.65;;;;;;;-145.68;57.21;72532.50;10170432;29;20264;-67
2023/07/31 11:21:22;;;;;;;1.98;1.60;;;;;;;-145.68;59.36;72604.44;10170599;29;20213;-67
2023/07/31 11:26:24;;;;;;;3.15;2.00;;;;;;;-145.68;60.54;72590.44;10170492;29;20604;-66
2023/07/31 11:31:24;;;;;;;5.10;2.20;;;;;;;-145.68;67.11;72612.44;10170478;29;20218;-68
2023/07/31 11:36:24;;;;;;;2.47;1.70;;;;;;;-145.68;60.04;72516.50;10170339;29;20244;-69
2023/07/31 11:41:25;;;;;;;3.75;1.98;;;;;;;-145.68;59.44;72412.59;10170360;29;20680;-70
2023/07/31 11:46:25;;;;;;;2.40;1.40;;;;;;;-145.68;54.72;72294.72;10170057;29;20332;-67
2023/07/31 11:51:26;;;;;;;3.00;1.88;;;;;;;-145.68;55.43;72454.56;10170368;29;20212;-68
2023/07/31 11:56:27;;;;;;;1.48;1.30;;;;;;;-145.68;55.66;72338.66;10174746;29;20733;-68
2023/07/31 12:01:28;;;;;;;3.13;1.30;;;;;;;-145.68;55.22;72320.69;10175883;29;20216;-70
2023/07/31 12:06:37;;;;;;;3.00;1.38;;;;;;;-145.68;52.26;72234.75;10176463;29;20248;-68
2023/07/31 12:11:45;;;;;;;3.40;1.52;;;;;;;-145.68;53.14;72356.66;10176379;29;20299;-67
2023/07/31 12:16:45;;;;;;;3.58;1.73;;;;;;;-145.68;52.64;72400.59;10175974;29;20610;-66
2023/07/31 12:21:46;;;;;;;6.28;1.90;;;;;;;-145.68;52.57;72352.66;10176361;29;20216;-69
2023/07/31 12:26:48;;;;;;;4.07;2.08;;;;;;;-145.68;52.35;72362.66;10174662;29;20248;-67
2023/07/31 12:31:48;;;;;;;5.93;1.65;;;;;;;-145.68;51.79;72330.66;10175879;29;20279;-68
2023/07/31 12:36:49;;;;;;;3.72;1.80;;;;;;;-145.68;51.56;72344.66;10175471;29;20228;-67
2023/07/31 12:41:49;;;;;;;4.43;2.08;;;;;;;-145.68;50.74;72296.69;10175566;29;20299;-68
2023/07/31 12:46:50;;;;;;;3.28;2.17;;;;;;;-145.68;50.83;72320.69;10175369;29;20220;-69
2023/07/31 12:51:50;;;;;;;5.38;1.98;;;;;;;-145.68;49.60;72228.75;10175304;29;20209;-69
2023/07/31 12:56:50;;;;;;;2.25;1.95;;;;;;;-145.68;48.24;72232.75;10174690;29;20252;-68
2023/07/31 13:01:51;;;;;;;4.20;1.90;;;;;;;-145.68;49.46;72276.72;10174579;29;20219;-70
2023/07/31 13:06:51;;;;;;;2.58;2.13;;;;;;;-145.68;50.34;72286.72;10173674;29;20233;-67
2023/07/31 13:11:52;;;;;;;4.28;2.30;;;;;;;-145.68;49.96;72210.78;10174174;29;20217;-68
2023/07/31 13:16:52;;;;;;;4.40;1.88;;;;;;;-145.68;49.66;72236.75;10174071;29;20246;-68
2023/07/31 13:21:52;;;;;;;3.35;1.77;;;;;;;-145.68;49.46;72298.69;10173043;29;20208;-68
2023/07/31 13:26:53;;;;;;;2.20;1.70;;;;;;;-145.68;49.66;72320.69;10173885;29;20279;-67
2023/07/31 13:31:53;;;;;;;2.97;1.85;;;;;;;-145.68;49.82;72322.69;10171866;29;20220;-67
2023/07/31 13:36:55;;;;;;;4.40;1.65;;;;;;;-145.68;51.30;72320.69;10173198;29;20323;-68
2023/07/31 13:41:55;;;;;;;3.45;2.00;;;;;;;-145.68;50.93;72256.75;10173408;29;20227;-67
2023/07/31 13:46:56;;;;;;;4.65;2.35;;;;;;;-145.68;51.13;72264.72;10172766;29;20323;-69
2023/07/31 13:51:57;;;;;;;3.30;2.13;;;;;;;-145.68;50.31;72188.81;10172891;29;20224;-70
2023/07/31 13:56:57;;;;;;;3.85;1.90;;;;;;;-145.68;49.73;72140.84;10172521;29;20248;-71
2023/07/31 14:01:57;;;;;;;2.80;2.05;;;;;;;-145.68;49.00;72068.91;10172503;29;20208;-69
2023/07/31 14:06:58;;;;;;;6.40;1.83;;;;;;;-145.68;49.58;72154.84;10172306;29;20769;-68
2023/07/31 14:11:58;;;;;;;2.67;2.08;;;;;;;-145.68;49.16;72200.78;10171964;29;20588;-68
2023/07/31 14:16:59;;;;;;;4.20;2.03;;;;;;;-145.68;51.07;72212.78;10171085;29;20672;-69
2023/07/31 14:21:59;;;;;;;4.32;2.28;;;;;;;-145.68;50.44;72282.72;10171704;29;20627;-68
2023/07/31 14:27:00;;;;;;;4.45;2.58;;;;;;;-145.68;50.21;72194.78;10171643;29;20595;-68
2023/07/31 14:32:00;;;;;;;5.80;2.50;;;;;;;-145.68;49.92;72198.78;10171494;29;20212;-70
2023/07/31 14:37:02;;;;;;;3.15;2.45;;;;;;;-145.68;48.88;72158.84;10171265;29;20296;-68
2023/07/31 14:42:02;;;;;;;4.18;2.08;;;;;;;-145.68;49.18;72128.84;10171446;29;20229;-68
2023/07/31 14:47:02;;;;;;;2.97;2.17;;;;;;;-145.68;49.60;72192.78;10171093;29;20284;-67
2023/07/31 14:52:03;;;;;;;2.13;1.83;;;;;;;-145.68;50.72;72242.75;10171454;29;20212;-68
2023/07/31 14:57:03;;;;;;;5.03;2.17;;;;;;;-145.68;49.30;72170.81;10170874;29;20236;-68
2023/07/31 15:02:04;;;;;;;6.60;2.78;;;;;;;-145.68;49.61;72168.81;10171100;29;20216;-68
2023/07/31 15:07:05;;;;;;;3.42;1.88;;;;;;;-145.68;50.28;72178.81;10170980;29;20228;-68
2023/07/31 15:12:06;;;;;;;4.30;2.55;;;;;;;-145.68;51.13;72238.75;10170968;29;20212;-67
2023/07/31 15:17:06;;;;;;;3.55;2.10;;;;;;;-145.68;51.05;72246.75;10170771;29;20240;-67
2023/07/31 15:22:06;;;;;;;3.72;2.28;;;;;;;-145.68;51.46;72292.72;10170342;29;20216;-67
2023/07/31 15:27:08;;;;;;;4.35;2.53;;;;;;;-145.68;52.09;72316.69;10171148;29;20225;-68
2023/07/31 15:32:08;;;;;;;2.92;1.63;;;;;;;-145.68;50.44;72196.78;10177779;29;20630;-68
2023/07/31 15:37:09;;;;;;;5.15;2.08;;;;;;;-145.68;51.13;72256.75;10177595;29;20292;-67
2023/07/31 15:42:09;;;;;;;3.95;2.63;;;;;;;-145.68;52.21;72274.72;10177725;29;20209;-67
2023/07/31 15:47:09;;;;;;;5.32;2.22;;;;;;;-145.68;51.23;72228.75;10177232;29;20244;-68
2023/07/31 15:52:10;;;;;;;4.45;2.53;;;;;;;-145.68;51.56;72252.75;10177419;29;20208;-66
2023/07/31 15:57:10;;;;;;;4.53;2.45;;;;;;;-145.68;52.04;72304.69;10176798;29;20247;-66
2023/07/31 16:02:11;;;;;;;4.10;2.28;;;;;;;-145.68;52.36;72324.69;10176960;29;20212;-67
2023/07/31 16:07:12;;;;;;;4.53;2.45;;;;;;;-145.68;52.79;72340.66;10176747;29;20232;-67
2023/07/31 16:12:12;;;;;;;3.00;2.17;;;;;;;-145.68;52.16;72328.69;10176838;29;20216;-67
2023/07/31 16:17:13;;;;;;;4.30;2.42;;;;;;;-145.68;51.55;72332.66;10176365;29;20247;-68
2023/07/31 16:22:13;;;;;;;3.80;2.33;;;;;;;-145.68;50.89;72330.66;10176379;29;20217;-68
2023/07/31 16:27:13;;;;;;;6.13;2.83;;;;;;;-145.68;50.23;72324.69;10175955;29;20228;-68
2023/07/31 16:32:14;;;;;;;3.80;2.25;;;;;;;-145.68;50.25;72332.66;10176033;29;20637;-67
2023/07/31 16:37:14;;;;;;;4.03;2.40;;;;;;;-145.68;50.44;72340.66;10158584;29;20327;-67
2023/07/31 16:42:14;;;;;;;3.50;2.20;;;;;;;-145.68;50.77;72348.66;10174491;29;20220;-67
2023/07/31 16:47:15;;;;;;;4.65;2.80;;;;;;;-145.68;51.48;72338.66;10175309;29;20258;-66
2023/07/31 16:52:17;;;;;;;3.45;2.53;;;;;;;-145.68;50.98;72308.69;10175165;29;20209;-67
2023/07/31 16:57:17;;;;;;;3.90;2.60;;;;;;;-145.68;51.47;72330.66;10265748;23;20243;-65
2023/07/31 17:02:17;;;;;;;4.78;2.38;;;;;;;-145.68;52.01;72336.66;10253667;29;20214;-65
2023/07/31 17:07:20;;;;;;;5.15;2.58;;;;;;;-145.68;52.54;72324.69;10217993;29;20728;-65
2023/07/31 17:12:21;;;;;;;5.25;3.60;;;;;;;-145.68;52.99;72320.69;10212329;29;20236;-65
2023/07/31 17:17:23;;;;;;;5.53;2.97;;;;;;;-145.68;52.76;72318.69;10213329;29;20316;-65
2023/07/31 17:22:23;;;;;;;5.20;2.65;;;;;;;-145.68;52.73;72342.66;10213405;29;20263;-66
2023/07/31 17:27:24;;;;;;;6.82;2.65;;;;;;;-145.68;53.01;72332.66;10212748;29;20278;-66
2023/07/31 17:32:26;;;;;;;3.10;2.35;;;;;;;-145.68;53.59;72344.66;10213002;29;20213;-66
2023/07/31 17:37:26;;;;;;;3.60;2.42;;;;;;;-145.68;53.89;72328.69;10212583;29;20275;-66
2023/07/31 17:42:27;;;;;;;7.47;2.80;;;;;;;-145.68;53.76;72302.69;10212454;29;20307;-66
2023/07/31 17:47:27;;;;;;;6.90;2.33;;;;;;;-145.68;53.79;72320.69;10212438;29;20714;-67
2023/07/31 17:52:27;;;;;;;4.50;2.63;;;;;;;-145.68;53.94;72322.69;10211710;29;20224;-65
2023/07/31 17:57:28;;;;;;;3.95;2.47;;;;;;;-145.68;54.46;72336.66;10211868;29;20232;-66
2023/07/31 18:02:29;;;;;;;4.25;2.47;;;;;;;-145.68;54.58;72332.66;10211917;29;20208;-66
2023/07/31 18:07:29;;;;;;;3.88;2.38;;;;;;;-145.68;55.04;72332.66;10211765;29;20240;-66
2023/07/31 18:12:30;;;;;;;5.60;2.80;;;;;;;-145.68;55.74;72360.66;10211746;29;20232;-67
2023/07/31 18:17:30;;;;;;;4.03;2.50;;;;;;;-145.68;55.47;72348.66;10210990;29;20243;-67
2023/07/31 18:22:30;;;;;;;7.55;2.95;;;;;;;-145.68;56.62;72374.63;10211385;29;20220;-67
2023/07/31 18:27:31;;;;;;;5.57;2.63;;;;;;;-145.68;56.21;72366.63;10211082;29;20323;-66
2023/07/31 18:32:31;;;;;;;3.55;2.65;;;;;;;-145.68;56.43;72368.63;10210903;29;20223;-67
2023/07/31 18:37:31;;;;;;;5.32;2.70;;;;;;;-145.68;57.28;72386.63;10211691;29;20360;-68
2023/07/31 18:42:32;;;;;;;5.50;2.95;;;;;;;-145.68;57.42;72390.63;10210762;29;20220;-68
2023/07/31 18:47:32;;;;;;;6.20;2.95;;;;;;;-145.68;57.66;72420.59;10210831;29;20246;-68
2023/07/31 18:52:33;;;;;;;5.57;3.13;;;;;;;-145.68;57.81;72432.59;10210780;29;20267;-67
2023/07/31 18:57:33;;;;;;;5.55;2.70;;;;;;;-145.68;57.76;72424.59;10210609;29;20244;-68
2023/07/31 19:02:33;;;;;;;5.55;3.10;;;;;;;-145.68;57.95;72430.59;10212072;29;20381;-68
2023/07/31 19:07:34;;;;;;;5.80;2.80;;;;;;;-145.68;57.77;72416.59;10218154;29;20652;-67
2023/07/31 19:12:34;;;;;;;7.32;2.95;;;;;;;-145.68;57.60;72408.59;10217934;29;20609;-68
2023/07/31 19:17:36;;;;;;;7.18;3.05;;;;;;;-145.68;57.61;72406.59;10217785;29;20248;-68
2023/07/31 19:22:36;;;;;;;7.97;2.83;;;;;;;-145.68;57.88;72416.59;10217790;29;20271;-67
2023/07/31 19:27:36;;;;;;;4.55;2.80;;;;;;;-145.68;58.25;72434.59;10217438;29;20777;-68
2023/07/31 19:32:37;;;;;;;7.43;2.70;;;;;;;-145.68;58.14;72432.59;10217303;29;20212;-67
2023/07/31 19:37:37;;;;;;;5.53;3.22;;;;;;;-145.68;58.23;72420.59;10216921;29;20243;-67
2023/07/31 19:42:38;;;;;;;8.07;3.20;;;;;;;-145.68;58.37;72430.59;10217120;29;20211;-67
2023/07/31 19:47:38;;;;;;;7.10;3.22;;;;;;;-145.68;58.52;72438.56;10216604;29;20239;-67
2023/07/31 19:52:39;;;;;;;6.05;2.97;;;;;;;-145.68;58.42;72440.56;10216663;29;20227;-67
2023/07/31 19:57:40;;;;;;;8.80;3.55;;;;;;;-145.68;58.34;72432.59;10216302;29;20246;-67
2023/07/31 20:02:40;;;;;;;5.97;2.50;;;;;;;-145.68;58.67;72428.59;10216251;29;20216;-67
2023/07/31 20:07:40;;;;;;;7.78;3.00;;;;;;;-145.68;58.70;72446.56;10216025;29;20239;-67
2023/07/31 20:12:41;;;;;;;5.50;2.88;;;;;;;-145.68;58.77;72440.56;10215739;29;20216;-67
2023/07/31 20:17:41;;;;;;;5.30;2.90;;;;;;;-145.68;58.90;72438.56;10215670;29;20246;-67
2023/07/31 20:22:42;;;;;;;4.35;2.60;;;;;;;-145.68;58.81;72430.59;10215337;29;20211;-67
2023/07/31 20:27:43;;;;;;;7.13;3.60;;;;;;;-145.68;58.38;72414.59;10215420;29;20236;-67
2023/07/31 20:32:44;;;;;;;7.30;3.03;;;;;;;-145.68;58.15;72400.59;10215094;29;20254;-67
2023/07/31 20:37:44;;;;;;;5.70;3.72;;;;;;;-145.68;58.51;72402.59;10214891;29;20244;-67
2023/07/31 20:42:57;;;;;;;9.35;3.30;;;;;;;-145.68;58.15;72390.63;10215025;29;20227;-67
2023/07/31 20:47:59;;;;;;;6.22;2.72;;;;;;;-145.68;58.15;72392.63;10214852;29;20251;-67
2023/07/31 20:52:59;;;;;;;7.30;3.30;;;;;;;-145.68;57.63;72378.63;10214701;29;20204;-67
2023/07/31 20:58:00;;;;;;;6.47;2.85;;;;;;;-145.68;57.70;72380.63;10214637;29;20231;-67
2023/07/31 21:03:03;;;;;;;4.65;3.00;;;;;;;-145.68;58.08;72380.63;10214599;29;20214;-67
2023/07/31 21:08:04;;;;;;;7.97;3.00;;;;;;;-145.68;58.10;72364.63;10213477;29;20208;-67
2023/07/31 21:13:04;;;;;;;7.57;2.70;;;;;;;-145.68;58.08;72364.63;10213858;29;20207;-67
2023/07/31 21:18:04;;;;;;;9.90;3.28;;;;;;;-145.68;58.44;72368.63;10213499;29;20781;-67
2023/07/31 21:23:06;;;;;;;7.30;3.00;;;;;;;-145.68;58.20;72368.63;10213209;29;20690;-67
2023/07/31 21:28:07;;;;;;;5.10;2.63;;;;;;;-145.68;58.26;72350.66;10212691;29;20632;-67
2023/07/31 21:33:07;;;;;;;6.10;2.97;;;;;;;-145.68;58.20;72340.66;10212885;29;20279;-67
2023/07/31 21:38:08;;;;;;;6.05;3.28;;;;;;;-145.68;57.78;72328.69;10212656;29;20726;-67
2023/07/31 21:43:08;;;;;;;5.82;2.67;;;;;;;-145.68;57.96;72332.66;10212742;29;20681;-67
2023/07/31 21:48:09;;;;;;;8.40;3.05;;;;;;;-145.68;58.36;72340.66;10212414;29;20311;-67
2023/07/31 21:53:09;;;;;;;5.15;2.90;;;;;;;-145.68;58.49;72340.66;10212303;29;20203;-67
2023/07/31 21:58:09;;;;;;;6.35;3.25;;;;;;;-145.68;58.63;72340.66;10212103;29;20310;-67
2023/07/31 22:03:10;;;;;;;6.68;2.75;;;;;;;-145.68;58.92;72344.66;10211780;29;20208;-67
2023/07/31 22:08:10;;;;;;;6.38;3.10;;;;;;;-145.68;59.08;72328.69;10212091;29;20211;-67
2023/07/31 22:13:10;;;;;;;6.78;2.95;;;;;;;-145.68;59.01;72328.69;10211437;29;20330;-66
2023/07/31 22:18:11;;;;;;;6.25;2.92;;;;;;;-145.68;59.58;72332.66;10211648;29;20239;-67
2023/07/31 22:23:11;;;;;;;6.13;3.03;;;;;;;-145.68;59.45;72338.66;10210904;29;20227;-67
2023/07/31 22:28:12;;;;;;;7.63;3.10;;;;;;;-145.68;59.52;72330.66;10211166;29;20290;-67
2023/07/31 22:33:12;;;;;;;6.00;2.78;;;;;;;-145.68;60.10;72344.66;10210984;29;20251;-67
2023/07/31 22:38:12;;;;;;;6.70;2.75;;;;;;;-145.68;60.55;72340.66;10209969;29;20235;-66
2023/07/31 22:43:13;;;;;;;8.13;3.10;;;;;;;-145.68;61.75;72348.66;10211058;29;20236;-68